sensor_id;sensor_type;location;lat;lon;timestamp;pressure;altitude;pressure_sealevel;temperature;humidity
28911;BME280;16028;42.642;23.310;2023-01-28T00:01:04;93357.94;;;1.00;95.74
28911;BME280;16028;42.642;23.310;2023-01-28T00:03:33;93358.63;;;1.02;96.77
28911;BME280;16028;42.642;23.310;2023-01-28T00:06:02;93358.41;;;1.05;95.88
28911;BME280;16028;42.642;23.310;2023-01-28T00:08:29;93362.19;;;1.13;95.94
28911;BME280;16028;42.642;23.310;2023-01-28T00:10:58;93364.00;;;1.23;94.62
28911;BME280;16028;42.642;23.310;2023-01-28T00:13:24;93373.63;;;1.20;95.33
28911;BME280;16028;42.642;23.310;2023-01-28T00:15:53;93384.34;;;1.25;94.21
28911;BME280;16028;42.642;23.310;2023-01-28T00:18:20;93384.91;;;1.17;93.75
28911;BME280;16028;42.642;23.310;2023-01-28T00:20:55;93388.22;;;1.06;94.12
28911;BME280;16028;42.642;23.310;2023-01-28T00:23:22;93391.47;;;1.08;95.58
28911;BME280;16028;42.642;23.310;2023-01-28T00:25:48;93388.72;;;1.12;95.33
28911;BME280;16028;42.642;23.310;2023-01-28T00:28:15;93387.38;;;1.06;94.50
28911;BME280;16028;42.642;23.310;2023-01-28T00:30:41;93396.59;;;1.08;94.50
28911;BME280;16028;42.642;23.310;2023-01-28T00:33:08;93392.81;;;1.14;93.98
28911;BME280;16028;42.642;23.310;2023-01-28T00:35:34;93390.28;;;1.01;93.85
28911;BME280;16028;42.642;23.310;2023-01-28T00:38:02;93400.31;;;1.04;94.27
28911;BME280;16028;42.642;23.310;2023-01-28T00:40:30;93394.47;;;1.02;94.02
28911;BME280;16028;42.642;23.310;2023-01-28T00:42:56;93406.06;;;0.95;94.73
28911;BME280;16028;42.642;23.310;2023-01-28T00:45:23;93406.06;;;0.95;95.02
28911;BME280;16028;42.642;23.310;2023-01-28T00:47:49;93404.09;;;0.99;94.62
28911;BME280;16028;42.642;23.310;2023-01-28T00:50:16;93406.84;;;1.08;94.77
28911;BME280;16028;42.642;23.310;2023-01-28T00:52:44;93410.44;;;1.06;94.75
28911;BME280;16028;42.642;23.310;2023-01-28T00:55:12;93404.66;;;1.15;93.87
28911;BME280;16028;42.642;23.310;2023-01-28T00:57:38;93410.56;;;1.04;94.12
28911;BME280;16028;42.642;23.310;2023-01-28T01:00:05;93412.81;;;0.96;94.71
28911;BME280;16028;42.642;23.310;2023-01-28T01:02:32;93410.03;;;0.99;94.05
28911;BME280;16028;42.642;23.310;2023-01-28T01:04:59;93409.34;;;0.97;94.39
28911;BME280;16028;42.642;23.310;2023-01-28T01:07:26;93402.16;;;1.02;94.32
28911;BME280;16028;42.642;23.310;2023-01-28T01:09:59;93403.56;;;1.06;93.87
28911;BME280;16028;42.642;23.310;2023-01-28T01:12:27;93406.56;;;1.00;93.90
28911;BME280;16028;42.642;23.310;2023-01-28T01:14:53;93406.88;;;0.96;94.16
28911;BME280;16028;42.642;23.310;2023-01-28T01:17:20;93408.84;;;0.92;93.88
28911;BME280;16028;42.642;23.310;2023-01-28T01:19:46;93417.09;;;0.96;94.46
28911;BME280;16028;42.642;23.310;2023-01-28T01:22:13;93409.13;;;1.00;94.45
28911;BME280;16028;42.642;23.310;2023-01-28T01:24:39;93420.66;;;1.06;94.72
28911;BME280;16028;42.642;23.310;2023-01-28T01:27:06;93417.91;;;1.09;94.46
28911;BME280;16028;42.642;23.310;2023-01-28T01:29:34;93414.91;;;1.15;94.31
28911;BME280;16028;42.642;23.310;2023-01-28T01:32:00;93417.19;;;1.07;93.64
28911;BME280;16028;42.642;23.310;2023-01-28T01:34:27;93413.22;;;1.03;94.11
28911;BME280;16028;42.642;23.310;2023-01-28T01:36:53;93422.97;;;0.98;94.03
28911;BME280;16028;42.642;23.310;2023-01-28T01:39:20;93425.53;;;0.85;94.58
28911;BME280;16028;42.642;23.310;2023-01-28T01:41:46;93420.91;;;0.90;95.49
28911;BME280;16028;42.642;23.310;2023-01-28T01:46:59;93422.66;;;0.90;95.57
28911;BME280;16028;42.642;23.310;2023-01-28T01:49:26;93418.25;;;0.92;95.57
28911;BME280;16028;42.642;23.310;2023-01-28T01:51:54;93421.22;;;0.98;95.72
28911;BME280;16028;42.642;23.310;2023-01-28T01:54:24;93416.00;;;0.87;95.00
28911;BME280;16028;42.642;23.310;2023-01-28T01:56:52;93423.81;;;0.73;96.21
28911;BME280;16028;42.642;23.310;2023-01-28T01:59:19;93429.03;;;0.84;96.38
28911;BME280;16028;42.642;23.310;2023-01-28T02:01:47;93420.50;;;0.84;96.98
28911;BME280;16028;42.642;23.310;2023-01-28T02:04:16;93422.66;;;0.90;96.91
28911;BME280;16028;42.642;23.310;2023-01-28T02:06:45;93430.53;;;0.99;96.57
28911;BME280;16028;42.642;23.310;2023-01-28T02:12:01;93429.41;;;1.03;96.05
28911;BME280;16028;42.642;23.310;2023-01-28T02:14:30;93429.88;;;1.08;95.04
28911;BME280;16028;42.642;23.310;2023-01-28T02:17:00;93427.44;;;1.07;94.54
28911;BME280;16028;42.642;23.310;2023-01-28T02:19:31;93426.75;;;1.05;95.01
28911;BME280;16028;42.642;23.310;2023-01-28T02:27:31;93430.53;;;0.99;94.36
28911;BME280;16028;42.642;23.310;2023-01-28T02:30:03;93428.34;;;1.06;93.69
28911;BME280;16028;42.642;23.310;2023-01-28T02:32:35;93433.59;;;1.04;92.86
28911;BME280;16028;42.642;23.310;2023-01-28T02:35:06;93430.31;;;1.02;93.65
28911;BME280;16028;42.642;23.310;2023-01-28T02:37:36;93426.84;;;1.03;94.00
28911;BME280;16028;42.642;23.310;2023-01-28T02:40:05;93434.00;;;1.11;93.45
28911;BME280;16028;42.642;23.310;2023-01-28T02:42:34;93439.00;;;1.13;93.35
28911;BME280;16028;42.642;23.310;2023-01-28T02:45:05;93436.34;;;1.14;92.45
28911;BME280;16028;42.642;23.310;2023-01-28T02:47:32;93440.47;;;1.04;92.56
28911;BME280;16028;42.642;23.310;2023-01-28T02:50:17;93435.84;;;0.96;93.53
28911;BME280;16028;42.642;23.310;2023-01-28T02:52:48;93438.53;;;0.95;93.17
28911;BME280;16028;42.642;23.310;2023-01-28T02:55:38;93435.59;;;0.76;93.84
28911;BME280;16028;42.642;23.310;2023-01-28T02:58:07;93441.53;;;0.76;94.47
28911;BME280;16028;42.642;23.310;2023-01-28T03:00:40;93438.22;;;0.87;94.46
28911;BME280;16028;42.642;23.310;2023-01-28T03:03:12;93438.94;;;0.89;94.61
28911;BME280;16028;42.642;23.310;2023-01-28T03:05:41;93446.50;;;0.90;95.02
28911;BME280;16028;42.642;23.310;2023-01-28T03:08:29;93444.44;;;1.08;93.28
28911;BME280;16028;42.642;23.310;2023-01-28T03:11:14;93438.94;;;1.01;93.28
28911;BME280;16028;42.642;23.310;2023-01-28T03:13:58;93446.63;;;0.89;93.52
28911;BME280;16028;42.642;23.310;2023-01-28T03:16:44;93452.06;;;0.84;94.60
28911;BME280;16028;42.642;23.310;2023-01-28T03:19:29;93444.59;;;0.81;95.09
28911;BME280;16028;42.642;23.310;2023-01-28T03:22:13;93449.28;;;0.87;95.27
28911;BME280;16028;42.642;23.310;2023-01-28T03:24:57;93443.44;;;0.98;93.99
28911;BME280;16028;42.642;23.310;2023-01-28T03:27:43;93449.97;;;0.89;93.12
28911;BME280;16028;42.642;23.310;2023-01-28T03:30:32;93445.41;;;0.82;93.14
28911;BME280;16028;42.642;23.310;2023-01-28T03:33:19;93445.81;;;0.76;93.52
28911;BME280;16028;42.642;23.310;2023-01-28T03:36:04;93445.84;;;0.63;94.25
28911;BME280;16028;42.642;23.310;2023-01-28T03:38:49;93449.91;;;0.66;94.31
28911;BME280;16028;42.642;23.310;2023-01-28T03:41:19;93463.84;;;0.62;94.58
28911;BME280;16028;42.642;23.310;2023-01-28T03:43:46;93460.84;;;0.68;94.46
28911;BME280;16028;42.642;23.310;2023-01-28T03:46:13;93463.31;;;0.69;93.85
28911;BME280;16028;42.642;23.310;2023-01-28T03:48:41;93458.91;;;0.71;93.98
28911;BME280;16028;42.642;23.310;2023-01-28T03:51:08;93474.06;;;0.74;93.57
28911;BME280;16028;42.642;23.310;2023-01-28T03:53:34;93458.72;;;0.74;93.90
28911;BME280;16028;42.642;23.310;2023-01-28T03:56:01;93464.97;;;0.83;93.14
28911;BME280;16028;42.642;23.310;2023-01-28T03:58:27;93463.19;;;0.83;92.64
28911;BME280;16028;42.642;23.310;2023-01-28T04:01:14;93472.13;;;0.65;93.21
28911;BME280;16028;42.642;23.310;2023-01-28T04:03:42;93468.94;;;0.62;93.19
28911;BME280;16028;42.642;23.310;2023-01-28T04:06:08;93466.59;;;0.71;92.88
28911;BME280;16028;42.642;23.310;2023-01-28T04:08:35;93476.22;;;0.68;93.03
28911;BME280;16028;42.642;23.310;2023-01-28T04:11:01;93465.47;;;0.75;92.77
28911;BME280;16028;42.642;23.310;2023-01-28T04:13:39;93477.44;;;0.75;92.34
28911;BME280;16028;42.642;23.310;2023-01-28T04:16:06;93476.81;;;0.84;92.17
28911;BME280;16028;42.642;23.310;2023-01-28T04:18:32;93478.75;;;0.80;92.01
28911;BME280;16028;42.642;23.310;2023-01-28T04:21:00;93476.00;;;0.83;91.73
28911;BME280;16028;42.642;23.310;2023-01-28T04:23:27;93476.13;;;0.82;91.83
28911;BME280;16028;42.642;23.310;2023-01-28T04:25:54;93487.06;;;0.71;92.00
28911;BME280;16028;42.642;23.310;2023-01-28T04:28:20;93489.75;;;0.70;91.81
28911;BME280;16028;42.642;23.310;2023-01-28T04:30:47;93491.88;;;0.76;92.10
28911;BME280;16028;42.642;23.310;2023-01-28T04:33:13;93496.19;;;0.75;92.60
28911;BME280;16028;42.642;23.310;2023-01-28T04:35:40;93495.47;;;0.73;91.89
28911;BME280;16028;42.642;23.310;2023-01-28T04:38:08;93497.91;;;0.75;92.49
28911;BME280;16028;42.642;23.310;2023-01-28T04:40:34;93494.66;;;0.73;92.28
28911;BME280;16028;42.642;23.310;2023-01-28T04:43:01;93503.44;;;0.81;93.03
28911;BME280;16028;42.642;23.310;2023-01-28T04:45:27;93508.97;;;0.75;92.48
28911;BME280;16028;42.642;23.310;2023-01-28T04:47:55;93513.69;;;0.81;92.33
28911;BME280;16028;42.642;23.310;2023-01-28T04:50:21;93509.28;;;0.71;92.46
28911;BME280;16028;42.642;23.310;2023-01-28T04:52:48;93510.22;;;0.70;92.88
28911;BME280;16028;42.642;23.310;2023-01-28T04:55:16;93520.03;;;0.63;93.05
28911;BME280;16028;42.642;23.310;2023-01-28T04:57:42;93511.22;;;0.67;92.82
28911;BME280;16028;42.642;23.310;2023-01-28T05:00:09;93510.09;;;0.71;93.19
28911;BME280;16028;42.642;23.310;2023-01-28T05:02:36;93515.13;;;0.73;93.16
28911;BME280;16028;42.642;23.310;2023-01-28T05:05:02;93522.81;;;0.73;93.36
28911;BME280;16028;42.642;23.310;2023-01-28T05:07:32;93518.59;;;0.72;93.12
28911;BME280;16028;42.642;23.310;2023-01-28T05:09:59;93524.00;;;0.67;93.08
28911;BME280;16028;42.642;23.310;2023-01-28T05:12:27;93528.75;;;0.73;92.41
28911;BME280;16028;42.642;23.310;2023-01-28T05:14:54;93537.00;;;0.64;93.41
28911;BME280;16028;42.642;23.310;2023-01-28T05:17:20;93541.19;;;0.65;93.36
28911;BME280;16028;42.642;23.310;2023-01-28T05:19:47;93530.56;;;0.59;94.15
28911;BME280;16028;42.642;23.310;2023-01-28T05:22:13;93538.97;;;0.61;92.96
28911;BME280;16028;42.642;23.310;2023-01-28T05:24:40;93537.81;;;0.52;93.26
28911;BME280;16028;42.642;23.310;2023-01-28T05:27:07;93542.81;;;0.41;93.52
28911;BME280;16028;42.642;23.310;2023-01-28T05:29:34;93547.00;;;0.42;93.89
28911;BME280;16028;42.642;23.310;2023-01-28T05:32:01;93546.72;;;0.46;93.88
28911;BME280;16028;42.642;23.310;2023-01-28T05:34:27;93551.22;;;0.56;93.69
28911;BME280;16028;42.642;23.310;2023-01-28T05:36:54;93550.00;;;0.61;93.61
28911;BME280;16028;42.642;23.310;2023-01-28T05:39:20;93550.22;;;0.71;93.65
28911;BME280;16028;42.642;23.310;2023-01-28T05:41:47;93551.97;;;0.70;93.42
28911;BME280;16028;42.642;23.310;2023-01-28T05:44:13;93556.06;;;0.73;92.60
28911;BME280;16028;42.642;23.310;2023-01-28T05:46:41;93559.03;;;0.67;92.11
28911;BME280;16028;42.642;23.310;2023-01-28T05:49:10;93554.53;;;0.70;92.80
28911;BME280;16028;42.642;23.310;2023-01-28T05:51:37;93559.03;;;0.67;93.27
28911;BME280;16028;42.642;23.310;2023-01-28T05:54:04;93551.16;;;0.70;93.02
28911;BME280;16028;42.642;23.310;2023-01-28T05:56:31;93556.06;;;0.73;92.07
28911;BME280;16028;42.642;23.310;2023-01-28T05:58:59;93558.28;;;0.65;91.89
28911;BME280;16028;42.642;23.310;2023-01-28T06:01:25;93567.91;;;0.61;91.70
28911;BME280;16028;42.642;23.310;2023-01-28T06:03:53;93561.28;;;0.71;92.35
28911;BME280;16028;42.642;23.310;2023-01-28T06:06:20;93566.59;;;0.68;91.95
28911;BME280;16028;42.642;23.310;2023-01-28T06:08:46;93569.06;;;0.70;91.89
28911;BME280;16028;42.642;23.310;2023-01-28T06:11:13;93579.38;;;0.68;92.26
28911;BME280;16028;42.642;23.310;2023-01-28T06:13:39;93585.41;;;0.67;92.77
28911;BME280;16028;42.642;23.310;2023-01-28T06:16:06;93582.38;;;0.75;91.87
28911;BME280;16028;42.642;23.310;2023-01-28T06:18:32;93587.19;;;0.67;91.98
28911;BME280;16028;42.642;23.310;2023-01-28T06:21:00;93587.06;;;0.68;92.53
28911;BME280;16028;42.642;23.310;2023-01-28T06:23:27;93596.66;;;0.65;92.48
28911;BME280;16028;42.642;23.310;2023-01-28T06:25:53;93597.69;;;0.62;93.04
28911;BME280;16028;42.642;23.310;2023-01-28T06:28:20;93605.38;;;0.62;92.62
28911;BME280;16028;42.642;23.310;2023-01-28T06:30:47;93609.19;;;0.69;92.85
28911;BME280;16028;42.642;23.310;2023-01-28T06:33:13;93613.38;;;0.70;92.91
28911;BME280;16028;42.642;23.310;2023-01-28T06:35:40;93611.13;;;0.78;93.34
28911;BME280;16028;42.642;23.310;2023-01-28T06:38:08;93616.06;;;0.81;92.12
28911;BME280;16028;42.642;23.310;2023-01-28T06:40:34;93618.91;;;0.77;91.70
28911;BME280;16028;42.642;23.310;2023-01-28T06:43:01;93623.09;;;0.78;92.32
28911;BME280;16028;42.642;23.310;2023-01-28T06:45:28;93620.53;;;0.65;92.25
28911;BME280;16028;42.642;23.310;2023-01-28T06:47:54;93627.09;;;0.69;93.25
28911;BME280;16028;42.642;23.310;2023-01-28T06:50:21;93629.25;;;0.75;93.09
28911;BME280;16028;42.642;23.310;2023-01-28T06:52:47;93641.13;;;0.76;93.15
28911;BME280;16028;42.642;23.310;2023-01-28T06:55:15;93645.84;;;0.82;92.74
28911;BME280;16028;42.642;23.310;2023-01-28T06:57:42;93648.09;;;0.87;91.70
28911;BME280;16028;42.642;23.310;2023-01-28T07:00:10;93648.72;;;0.90;91.59
28911;BME280;16028;42.642;23.310;2023-01-28T07:02:39;93641.38;;;0.86;92.31
28911;BME280;16028;42.642;23.310;2023-01-28T07:05:06;93651.50;;;0.87;91.99
28911;BME280;16028;42.642;23.310;2023-01-28T07:07:32;93654.03;;;0.87;92.88
28911;BME280;16028;42.642;23.310;2023-01-28T07:09:59;93656.13;;;0.95;91.77
28911;BME280;16028;42.642;23.310;2023-01-28T07:12:27;93656.38;;;0.78;92.25
28911;BME280;16028;42.642;23.310;2023-01-28T07:14:54;93654.41;;;0.69;92.57
28911;BME280;16028;42.642;23.310;2023-01-28T07:17:20;93663.84;;;0.81;92.49
28911;BME280;16028;42.642;23.310;2023-01-28T07:19:47;93669.19;;;0.78;92.92
28911;BME280;16028;42.642;23.310;2023-01-28T07:22:13;93671.25;;;0.59;93.24
28911;BME280;16028;42.642;23.310;2023-01-28T07:24:39;93668.03;;;0.42;93.49
28911;BME280;16028;42.642;23.310;2023-01-28T07:27:06;93667.66;;;0.22;94.29
28911;BME280;16028;42.642;23.310;2023-01-28T07:29:34;93679.50;;;0.23;95.00
28911;BME280;16028;42.642;23.310;2023-01-28T07:32:00;93677.69;;;0.25;95.03
28911;BME280;16028;42.642;23.310;2023-01-28T07:34:28;93686.50;;;0.33;95.58
28911;BME280;16028;42.642;23.310;2023-01-28T07:36:55;93683.09;;;0.47;94.91
28911;BME280;16028;42.642;23.310;2023-01-28T07:39:21;93688.03;;;0.50;93.42
28911;BME280;16028;42.642;23.310;2023-01-28T07:41:48;93690.91;;;0.58;93.53
28911;BME280;16028;42.642;23.310;2023-01-28T07:44:14;93691.53;;;0.62;93.93
28911;BME280;16028;42.642;23.310;2023-01-28T07:46:42;93691.16;;;0.68;94.43
28911;BME280;16028;42.642;23.310;2023-01-28T07:49:09;93692.53;;;0.73;93.83
28911;BME280;16028;42.642;23.310;2023-01-28T07:51:35;93694.06;;;0.76;93.35
28911;BME280;16028;42.642;23.310;2023-01-28T07:54:01;93699.22;;;0.88;92.80
28911;BME280;16028;42.642;23.310;2023-01-28T07:56:29;93693.97;;;0.90;92.61
28911;BME280;16028;42.642;23.310;2023-01-28T07:58:55;93697.91;;;0.95;92.13
28911;BME280;16028;42.642;23.310;2023-01-28T08:01:22;93707.13;;;0.98;92.98
28911;BME280;16028;42.642;23.310;2023-01-28T08:03:50;93701.91;;;1.12;90.50
28911;BME280;16028;42.642;23.310;2023-01-28T08:06:16;93703.34;;;1.03;90.97
28911;BME280;16028;42.642;23.310;2023-01-28T08:08:43;93699.13;;;1.02;91.33
28911;BME280;16028;42.642;23.310;2023-01-28T08:11:09;93710.53;;;1.11;91.00
28911;BME280;16028;42.642;23.310;2023-01-28T08:13:36;93708.69;;;1.13;90.17
28911;BME280;16028;42.642;23.310;2023-01-28T08:16:02;93709.28;;;1.04;90.03
28911;BME280;16028;42.642;23.310;2023-01-28T08:18:29;93711.66;;;1.07;91.73
28911;BME280;16028;42.642;23.310;2023-01-28T08:20:57;93712.66;;;1.04;91.95
28911;BME280;16028;42.642;23.310;2023-01-28T08:23:24;93715.88;;;1.21;91.36
28911;BME280;16028;42.642;23.310;2023-01-28T08:25:51;93712.78;;;1.16;90.53
28911;BME280;16028;42.642;23.310;2023-01-28T08:28:18;93719.94;;;1.11;91.38
28911;BME280;16028;42.642;23.310;2023-01-28T08:30:46;93721.72;;;1.23;91.70
28911;BME280;16028;42.642;23.310;2023-01-28T08:33:13;93722.06;;;1.31;91.14
28911;BME280;16028;42.642;23.310;2023-01-28T08:35:40;93721.31;;;1.41;90.06
28911;BME280;16028;42.642;23.310;2023-01-28T08:38:09;93724.44;;;1.46;90.52
28911;BME280;16028;42.642;23.310;2023-01-28T08:40:36;93717.94;;;1.41;89.97
28911;BME280;16028;42.642;23.310;2023-01-28T08:43:03;93722.78;;;1.45;90.82
28911;BME280;16028;42.642;23.310;2023-01-28T08:45:29;93724.09;;;1.51;90.52
28911;BME280;16028;42.642;23.310;2023-01-28T08:47:57;93722.50;;;1.63;89.77
28911;BME280;16028;42.642;23.310;2023-01-28T08:50:24;93728.31;;;1.65;87.12
28911;BME280;16028;42.642;23.310;2023-01-28T08:52:53;93721.13;;;1.57;88.69
28911;BME280;16028;42.642;23.310;2023-01-28T08:55:22;93720.84;;;1.62;88.10
28911;BME280;16028;42.642;23.310;2023-01-28T08:57:48;93724.44;;;1.46;87.92
28911;BME280;16028;42.642;23.310;2023-01-28T09:00:15;93724.31;;;1.48;88.11
28911;BME280;16028;42.642;23.310;2023-01-28T09:02:42;93727.88;;;1.33;87.94
28911;BME280;16028;42.642;23.310;2023-01-28T09:05:08;93728.09;;;1.30;88.44
28911;BME280;16028;42.642;23.310;2023-01-28T09:07:35;93721.19;;;1.18;88.84
28911;BME280;16028;42.642;23.310;2023-01-28T09:10:01;93726.41;;;1.16;89.99
28911;BME280;16028;42.642;23.310;2023-01-28T09:12:29;93721.00;;;1.21;90.98
28911;BME280;16028;42.642;23.310;2023-01-28T09:14:56;93728.47;;;1.24;91.06
28911;BME280;16028;42.642;23.310;2023-01-28T09:17:22;93731.16;;;1.35;91.01
28911;BME280;16028;42.642;23.310;2023-01-28T09:19:49;93725.41;;;1.31;92.20
28911;BME280;16028;42.642;23.310;2023-01-28T09:22:16;93722.38;;;1.51;91.58
28911;BME280;16028;42.642;23.310;2023-01-28T09:24:42;93726.66;;;1.51;90.23
28911;BME280;16028;42.642;23.310;2023-01-28T09:27:09;93739.19;;;1.43;91.02
28911;BME280;16028;42.642;23.310;2023-01-28T09:29:37;93731.78;;;1.51;91.62
28911;BME280;16028;42.642;23.310;2023-01-28T09:32:03;93725.97;;;1.62;90.91
28911;BME280;16028;42.642;23.310;2023-01-28T09:34:31;93726.88;;;1.60;91.54
28911;BME280;16028;42.642;23.310;2023-01-28T09:36:57;93737.13;;;1.73;91.04
28911;BME280;16028;42.642;23.310;2023-01-28T09:39:24;93725.84;;;1.50;89.19
28911;BME280;16028;42.642;23.310;2023-01-28T09:41:55;93728.31;;;1.39;89.12
28911;BME280;16028;42.642;23.310;2023-01-28T09:44:29;93726.97;;;1.34;90.38
28911;BME280;16028;42.642;23.310;2023-01-28T09:47:01;93729.72;;;1.31;90.56
28911;BME280;16028;42.642;23.310;2023-01-28T09:49:31;93726.44;;;1.29;90.40
28911;BME280;16028;42.642;23.310;2023-01-28T09:52:00;93721.63;;;1.24;91.25
28911;BME280;16028;42.642;23.310;2023-01-28T09:54:28;93724.41;;;1.34;92.77
28911;BME280;16028;42.642;23.310;2023-01-28T09:57:00;93720.91;;;1.47;92.34
28911;BME280;16028;42.642;23.310;2023-01-28T09:59:30;93726.06;;;1.60;92.41
28911;BME280;16028;42.642;23.310;2023-01-28T10:01:59;93728.03;;;1.69;89.58
28911;BME280;16028;42.642;23.310;2023-01-28T10:07:14;93718.47;;;1.46;90.89
28911;BME280;16028;42.642;23.310;2023-01-28T10:09:45;93723.00;;;1.55;91.01
28911;BME280;16028;42.642;23.310;2023-01-28T10:12:21;93714.69;;;1.51;91.07
28911;BME280;16028;42.642;23.310;2023-01-28T10:14:55;93723.09;;;1.66;91.64
28911;BME280;16028;42.642;23.310;2023-01-28T10:17:25;93714.69;;;1.77;89.80
28911;BME280;16028;42.642;23.310;2023-01-28T10:19:53;93711.72;;;1.70;90.40
28911;BME280;16028;42.642;23.310;2023-01-28T10:22:24;93712.53;;;1.58;91.26
28911;BME280;16028;42.642;23.310;2023-01-28T10:24:53;93715.59;;;1.63;92.35
28911;BME280;16028;42.642;23.310;2023-01-28T10:27:23;93717.56;;;1.59;90.49
28911;BME280;16028;42.642;23.310;2023-01-28T10:29:49;93722.56;;;1.48;90.26
28911;BME280;16028;42.642;23.310;2023-01-28T10:32:20;93718.75;;;1.41;91.36
28911;BME280;16028;42.642;23.310;2023-01-28T10:34:48;93723.81;;;1.43;91.50
28911;BME280;16028;42.642;23.310;2023-01-28T10:37:15;93721.34;;;1.54;91.86
28911;BME280;16028;42.642;23.310;2023-01-28T10:39:42;93719.91;;;1.50;92.06
28911;BME280;16028;42.642;23.310;2023-01-28T10:42:13;93723.59;;;1.58;92.62
28911;BME280;16028;42.642;23.310;2023-01-28T10:44:41;93716.63;;;1.60;91.74
28911;BME280;16028;42.642;23.310;2023-01-28T10:47:11;93726.16;;;1.58;92.86
28911;BME280;16028;42.642;23.310;2023-01-28T10:49:41;93714.81;;;1.63;93.20
28911;BME280;16028;42.642;23.310;2023-01-28T10:52:09;93713.34;;;1.58;91.26
28911;BME280;16028;42.642;23.310;2023-01-28T10:54:36;93716.13;;;1.55;91.66
28911;BME280;16028;42.642;23.310;2023-01-28T10:57:04;93715.78;;;1.47;92.07
28911;BME280;16028;42.642;23.310;2023-01-28T10:59:33;93714.97;;;1.34;92.45
28911;BME280;16028;42.642;23.310;2023-01-28T11:02:01;93714.75;;;1.37;93.01
28911;BME280;16028;42.642;23.310;2023-01-28T11:04:30;93717.09;;;1.28;93.12
28911;BME280;16028;42.642;23.310;2023-01-28T11:06:58;93709.94;;;1.33;94.36
28911;BME280;16028;42.642;23.310;2023-01-28T11:09:25;93718.16;;;1.38;93.53
28911;BME280;16028;42.642;23.310;2023-01-28T11:11:52;93717.66;;;1.45;93.72
28911;BME280;16028;42.642;23.310;2023-01-28T11:14:21;93709.66;;;1.50;93.89
28911;BME280;16028;42.642;23.310;2023-01-28T11:16:47;93716.84;;;1.57;93.95
28911;BME280;16028;42.642;23.310;2023-01-28T11:19:15;93718.50;;;1.71;91.91
28911;BME280;16028;42.642;23.310;2023-01-28T11:21:47;93710.16;;;1.80;91.34
28911;BME280;16028;42.642;23.310;2023-01-28T11:24:14;93706.69;;;1.81;90.89
28911;BME280;16028;42.642;23.310;2023-01-28T11:26:44;93710.78;;;1.84;90.53
28911;BME280;16028;42.642;23.310;2023-01-28T11:29:18;93702.59;;;1.91;91.45
28911;BME280;16028;42.642;23.310;2023-01-28T11:31:48;93706.50;;;1.72;89.38
28911;BME280;16028;42.642;23.310;2023-01-28T11:34:16;93711.41;;;1.62;89.48
28911;BME280;16028;42.642;23.310;2023-01-28T11:36:48;93708.84;;;1.62;90.70
28911;BME280;16028;42.642;23.310;2023-01-28T11:39:16;93707.53;;;1.69;90.18
28911;BME280;16028;42.642;23.310;2023-01-28T11:41:43;93707.31;;;1.72;89.54
28911;BME280;16028;42.642;23.310;2023-01-28T11:44:10;93709.06;;;1.72;88.70
28911;BME280;16028;42.642;23.310;2023-01-28T11:46:45;93712.94;;;1.77;88.76
28911;BME280;16028;42.642;23.310;2023-01-28T11:49:17;93698.69;;;1.73;89.78
28911;BME280;16028;42.642;23.310;2023-01-28T11:51:51;93695.19;;;1.87;88.56
28911;BME280;16028;42.642;23.310;2023-01-28T11:54:26;93698.38;;;1.90;88.84
28911;BME280;16028;42.642;23.310;2023-01-28T11:57:00;93701.75;;;1.91;88.18
28911;BME280;16028;42.642;23.310;2023-01-28T11:59:42;93697.84;;;1.85;89.33
28911;BME280;16028;42.642;23.310;2023-01-28T12:02:17;93698.38;;;1.90;89.18
28911;BME280;16028;42.642;23.310;2023-01-28T12:04:54;93699.06;;;2.05;88.47
28911;BME280;16028;42.642;23.310;2023-01-28T12:07:31;93698.81;;;2.21;89.00
28911;BME280;16028;42.642;23.310;2023-01-28T12:10:03;93696.06;;;2.24;87.87
28911;BME280;16028;42.642;23.310;2023-01-28T12:12:47;93704.16;;;2.30;87.45
28911;BME280;16028;42.642;23.310;2023-01-28T12:15:39;93699.63;;;2.34;86.34
28911;BME280;16028;42.642;23.310;2023-01-28T12:18:09;93702.41;;;2.31;85.36
28911;BME280;16028;42.642;23.310;2023-01-28T12:20:43;93706.34;;;2.11;85.65
28911;BME280;16028;42.642;23.310;2023-01-28T12:23:18;93705.41;;;2.25;86.15
28911;BME280;16028;42.642;23.310;2023-01-28T12:25:54;93698.53;;;2.25;84.43
28911;BME280;16028;42.642;23.310;2023-01-28T12:28:27;93704.28;;;2.16;85.01
28911;BME280;16028;42.642;23.310;2023-01-28T12:30:59;93712.63;;;2.07;84.57
28911;BME280;16028;42.642;23.310;2023-01-28T12:36:19;93713.03;;;2.13;86.09
28911;BME280;16028;42.642;23.310;2023-01-28T12:38:52;93711.78;;;2.06;85.90
28911;BME280;16028;42.642;23.310;2023-01-28T12:41:22;93712.53;;;1.96;85.65
28911;BME280;16028;42.642;23.310;2023-01-28T12:43:54;93721.34;;;1.92;88.31
28911;BME280;16028;42.642;23.310;2023-01-28T12:46:28;93719.28;;;1.97;86.96
28911;BME280;16028;42.642;23.310;2023-01-28T12:48:58;93714.16;;;1.97;88.44
28911;BME280;16028;42.642;23.310;2023-01-28T12:51:31;93728.31;;;2.02;87.26
28911;BME280;16028;42.642;23.310;2023-01-28T12:54:00;93731.09;;;1.99;88.91
28911;BME280;16028;42.642;23.310;2023-01-28T12:56:28;93731.09;;;1.99;89.37
28911;BME280;16028;42.642;23.310;2023-01-28T12:58:58;93736.59;;;2.19;87.73
28911;BME280;16028;42.642;23.310;2023-01-28T13:01:28;93731.06;;;2.25;86.42
28911;BME280;16028;42.642;23.310;2023-01-28T13:03:59;93734.00;;;2.31;86.09
28911;BME280;16028;42.642;23.310;2023-01-28T13:06:29;93733.44;;;2.15;86.33
28911;BME280;16028;42.642;23.310;2023-01-28T13:08:59;93737.66;;;2.03;87.54
28911;BME280;16028;42.642;23.310;2023-01-28T13:11:29;93744.72;;;2.00;88.20
28911;BME280;16028;42.642;23.310;2023-01-28T13:13:58;93741.22;;;1.88;88.55
28911;BME280;16028;42.642;23.310;2023-01-28T13:16:25;93735.81;;;1.80;88.77
28911;BME280;16028;42.642;23.310;2023-01-28T13:18:51;93744.94;;;1.84;89.87
28911;BME280;16028;42.642;23.310;2023-01-28T13:21:28;93752.22;;;1.90;89.65
28911;BME280;16028;42.642;23.310;2023-01-28T13:24:03;93745.97;;;1.94;88.52
28911;BME280;16028;42.642;23.310;2023-01-28T13:26:35;93752.09;;;1.92;88.82